Gary, IN (46404)

3:28 PM CDT on August 27, 2014 (GMT -0500)
Griffith | Change Station
CLOSE
Current Station
Personal Weather Station
Location: Griffith, IN
Elevation: 653 ft
Nearby Weather Stations
Active Advisory: Flood Advisory Active Notice: Public Information Statement

Elev 653 ft 41.52 °N, 87.43 °W | Updated 25 minutes ago

Scattered Clouds
Scattered Clouds
78.6 °F
Feels Like 80 °F
N
2.0
Wind Variable Wind from NE
Gusts 4.0 mph

Today
High -- | Low -- °F
--% Chance of Precip.
Yesterday
High -- | Low -- °F
Precip. -- in
6:10 AM 7:30 PM
Waxing Crescent, 5% visible
Pressure 30.14 in
Visibility 15.0 miles
Clouds Scattered Clouds 15000 ft
Scattered Clouds 25000 ft
Heat Index 80 °F
Dew Point 64 °F
Humidity 61%
Rainfall 0.00 in
Snow Depth Not available.
UV 6 out of 12
Pollen 8.80 out of 12
Ozone Good
PM2.5 Good
Flu Activity Not available.
METAR KGYY 271945Z 03012KT 15SM SCT150 SCT250 25/18 A3014

More Conditions Fewer Conditions

Pressure 30.14 in
Visibility 15.0 miles
Clouds Scattered Clouds 15000 ft
Scattered Clouds 25000 ft
Heat Index 80 °F
Dew Point 64 °F
Humidity 61%
Rainfall 0.00 in
Snow Depth Not available.
UV 6 out of 12
Pollen 8.80 out of 12
Ozone Good
PM2.5 Good
Flu Activity Not available.
METAR KGYY 271945Z 03012KT 15SM SCT150 SCT250 25/18 A3014

More Conditions Fewer Conditions

10-Day Weather Forecast

Almanac

Astronomy

Aug. 27, 2014 Rise Set
Actual Time 6:10 AM CDT 7:30 PM CDT
Civil Twilight 5:41 AM CDT 7:59 PM CDT
Nautical Twilight 5:06 AM CDT 8:34 PM CDT
Astronomical Twilight 4:30 AM CDT 9:10 PM CDT
Moon 8:08 AM CDT 8:20 PM CDT
Length of Visible Light 14h 17m
Length of Day
13h 20m
Tomorrow will be 2m 38s shorter.
Waxing Crescent, 5% of the Moon is Illuminated
Today
Waxing Crescent
Sep 2
First Quarter
Sep 8
Full
Sep 15
Last Quarter
Sep 24
New

Today's Extremes

State Highs State Lows

Community

WunderPhotos

Upload Photos

1,747,781 photos uploaded!

Nearby

Air Quality

  Air Quality AQ Index Pollutant
Yesterday Good
PM10
Yesterday Good
OZONE
Current Good
PM2.5
Current Good
OZONE
Wednesday Moderate
PM2.5
Wednesday Good
OZONE
Thursday Moderate
PM2.5
Thursday Good
OZONE
Friday Moderate
PM2.5
Friday Good
OZONE

Snow Depth

Station Depth Elevation
No new snow has been reported.

Earthquake Activity

City Distance Mag. Time & Date
No recent earthquake activity has been reported nearby.
Minimum magnitude displayed is 2.5.

Coastal Water Temperatures

Place Temperature
No Stations Reporting

Nearby Weather Stations